Time,TemperatureF,DewpointF,PressureIn,WindDirection,WindDirectionDegrees,WindSpeedMPH,WindSpeedGustMPH,Humidity,HourlyPrecipIn,Conditions,Clouds,dailyrainin,SoftwareType,DateUTC
2013-03-03 00:00:00,40.9,20.1,29.97,NNW,339,9.0,10.0,43,0.00,,,0.00,LWC V2.00 B2112,2013-03-03 08:00:00,
2013-03-03 00:05:00,40.9,19.6,29.97,NW,319,8.0,10.0,42,0.00,,,0.00,LWC V2.00 B2112,2013-03-03 08:05:00,
2013-03-03 00:10:00,40.8,18.9,29.97,NW,308,7.0,10.0,41,0.00,,,0.00,LWC V2.00 B2112,2013-03-03 08:10:00,
2013-03-03 00:15:00,40.5,20.3,29.98,NNE,27,0.0,11.0,44,0.00,,,0.00,LWC V2.00 B2112,2013-03-03 08:15:00,
2013-03-03 00:20:00,40.3,19.6,29.98,NW,316,6.0,10.0,43,0.00,,,0.00,LWC V2.00 B2112,2013-03-03 08:20:00,
2013-03-03 00:25:00,39.9,20.8,29.98,WNW,298,0.0,10.0,46,0.00,,,0.00,LWC V2.00 B2112,2013-03-03 08:25:00,
2013-03-03 00:30:00,39.8,20.2,29.98,NW,306,9.0,10.0,45,0.00,,,0.00,LWC V2.00 B2112,2013-03-03 08:30:00,
2013-03-03 00:35:00,39.9,20.8,29.98,SW,236,6.0,9.0,46,0.00,,,0.00,LWC V2.00 B2112,2013-03-03 08:35:00,
2013-03-03 00:40:00,39.8,20.7,29.98,West,263,10.0,10.0,46,0.00,,,0.00,LWC V2.00 B2112,2013-03-03 08:40:00,
2013-03-03 00:45:00,39.8,20.2,29.98,West,265,7.0,11.0,45,0.00,,,0.00,LWC V2.00 B2112,2013-03-03 08:45:00,
2013-03-03 00:50:00,39.9,19.2,29.98,West,278,10.0,11.0,43,0.00,,,0.00,LWC V2.00 B2112,2013-03-03 08:50:00,
2013-03-03 00:55:00,39.9,19.8,29.98,West,264,6.0,9.0,44,0.00,,,0.00,LWC V2.00 B2112,2013-03-03 08:55:00,
2013-03-03 01:00:00,39.8,21.2,29.98,WSW,253,4.0,10.0,47,0.00,,,0.00,LWC V2.00 B2112,2013-03-03 09:00:00,
2013-03-03 01:05:00,39.6,20.5,29.98,WSW,239,4.0,8.0,46,0.00,,,0.00,LWC V2.00 B2112,2013-03-03 09:05:00,
2013-03-03 01:10:00,39.6,21.5,29.98,NW,309,6.0,8.0,48,0.00,,,0.00,LWC V2.00 B2112,2013-03-03 09:10:00,
2013-03-03 01:15:00,39.5,21.0,29.98,NW,311,0.0,1.0,47,0.00,,,0.00,LWC V2.00 B2112,2013-03-03 09:15:00,
2013-03-03 01:20:00,39.2,20.7,29.98,NW,305,4.0,7.0,47,0.00,,,0.00,LWC V2.00 B2112,2013-03-03 09:20:00,
2013-03-03 01:25:00,38.9,20.4,29.98,SSW,206,0.0,0.0,47,0.00,,,0.00,LWC V2.00 B2112,2013-03-03 09:25:00,
2013-03-03 01:30:00,38.0,21.0,29.98,SW,222,7.0,8.0,50,0.00,,,0.00,LWC V2.00 B2112,2013-03-03 09:30:00,
2013-03-03 01:35:00,38.0,22.0,29.98,WNW,289,0.0,0.0,52,0.00,,,0.00,LWC V2.00 B2112,2013-03-03 09:35:00,
2013-03-03 01:40:00,37.8,21.3,29.98,WNW,289,0.0,0.0,51,0.00,,,0.00,LWC V2.00 B2112,2013-03-03 09:40:00,
2013-03-03 01:45:00,37.8,20.8,29.99,NW,318,2.0,6.0,50,0.00,,,0.00,LWC V2.00 B2112,2013-03-03 09:45:00,
2013-03-03 01:50:00,37.2,23.4,29.99,WSW,250,0.0,0.0,57,0.00,,,0.00,LWC V2.00 B2112,2013-03-03 09:50:00,
2013-03-03 01:55:00,36.5,23.1,29.99,WSW,250,0.0,0.0,58,0.00,,,0.00,LWC V2.00 B2112,2013-03-03 09:55:00,
2013-03-03 02:00:00,35.8,24.5,30.00,WSW,254,0.0,7.0,63,0.00,,,0.00,LWC V2.00 B2112,2013-03-03 10:00:00,
2013-03-03 02:05:00,35.5,23.0,30.00,SW,220,2.0,2.0,60,0.00,,,0.00,LWC V2.00 B2112,2013-03-03 10:05:00,
2013-03-03 02:10:00,35.0,22.5,30.00,WNW,299,0.0,0.0,60,0.00,,,0.00,LWC V2.00 B2112,2013-03-03 10:10:00,
2013-03-03 02:15:00,34.9,22.8,29.99,WNW,299,0.0,1.0,61,0.00,,,0.00,LWC V2.00 B2112,2013-03-03 10:15:00,
2013-03-03 02:20:00,36.9,25.9,29.99,West,277,6.0,11.0,64,0.00,,,0.00,LWC V2.00 B2112,2013-03-03 10:20:00,
2013-03-03 02:25:00,38.2,21.2,29.99,WNW,296,4.0,7.0,50,0.00,,,0.00,LWC V2.00 B2112,2013-03-03 10:25:00,
2013-03-03 02:30:00,38.2,21.2,29.98,WNW,296,1.0,1.0,50,0.00,,,0.00,LWC V2.00 B2112,2013-03-03 10:30:00,
2013-03-03 02:35:00,38.2,21.2,29.98,SSW,202,0.0,0.0,50,0.00,,,0.00,LWC V2.00 B2112,2013-03-03 10:35:00,
2013-03-03 02:40:00,38.2,21.2,29.98,SE,133,0.0,1.0,50,0.00,,,0.00,LWC V2.00 B2112,2013-03-03 10:40:00,
2013-03-03 02:45:00,38.2,21.2,29.97,North,359,2.0,7.0,50,0.00,,,0.00,LWC V2.00 B2112,2013-03-03 10:45:00,
2013-03-03 02:50:00,38.2,21.2,29.97,South,184,0.0,4.0,50,0.00,,,0.00,LWC V2.00 B2112,2013-03-03 10:50:00,
2013-03-03 02:55:00,38.2,21.2,29.97,North,7,0.0,4.0,50,0.00,,,0.00,LWC V2.00 B2112,2013-03-03 10:55:00,
2013-03-03 03:00:00,38.2,21.2,29.98,West,272,0.0,0.0,50,0.00,,,0.00,LWC V2.00 B2112,2013-03-03 11:00:00,
2013-03-03 03:05:00,36.3,19.5,29.98,West,277,0.0,6.0,50,0.00,,,0.00,LWC V2.00 B2112,2013-03-03 11:05:00,
2013-03-03 03:10:00,35.9,19.1,29.98,West,277,0.0,0.0,50,0.00,,,0.00,LWC V2.00 B2112,2013-03-03 11:10:00,
2013-03-03 03:15:00,35.9,19.1,29.99,West,281,0.0,0.0,50,0.00,,,0.00,LWC V2.00 B2112,2013-03-03 11:15:00,
2013-03-03 03:20:00,36.3,19.5,29.99,NNW,335,8.0,8.0,50,0.00,,,0.00,LWC V2.00 B2112,2013-03-03 11:20:00,
2013-03-03 03:25:00,37.2,20.3,29.99,NW,304,8.0,9.0,50,0.00,,,0.00,LWC V2.00 B2112,2013-03-03 11:25:00,
2013-03-03 03:30:00,37.2,20.3,29.98,NNW,346,0.0,1.0,50,0.00,,,0.00,LWC V2.00 B2112,2013-03-03 11:30:00,
2013-03-03 03:35:00,37.6,20.7,29.98,NNW,329,4.0,7.0,50,0.00,,,0.00,LWC V2.00 B2112,2013-03-03 11:35:00,
2013-03-03 03:40:00,38.2,21.2,29.98,South,178,0.0,2.0,50,0.00,,,0.00,LWC V2.00 B2112,2013-03-03 11:40:00,
2013-03-03 03:45:00,38.0,23.3,29.99,NW,311,4.0,4.0,55,0.00,,,0.00,LWC V2.00 B2112,2013-03-03 11:45:00,
2013-03-03 03:50:00,38.0,23.3,29.99,ESE,102,0.0,0.0,55,0.00,,,0.00,LWC V2.00 B2112,2013-03-03 11:50:00,
2013-03-03 03:55:00,37.5,22.8,29.99,NE,54,4.0,4.0,55,0.00,,,0.00,LWC V2.00 B2112,2013-03-03 11:55:00,
2013-03-03 04:00:00,37.5,22.8,29.98,WSW,241,0.0,0.0,55,0.00,,,0.00,LWC V2.00 B2112,2013-03-03 12:00:00,
2013-03-03 04:05:00,37.5,24.1,29.98,SSW,212,0.0,0.0,58,0.00,,,0.00,LWC V2.00 B2112,2013-03-03 12:05:00,
2013-03-03 04:10:00,37.5,24.1,29.98,SSW,212,0.0,0.0,58,0.00,,,0.00,LWC V2.00 B2112,2013-03-03 12:10:00,
2013-03-03 04:15:00,36.2,22.9,29.98,West,277,6.0,6.0,58,0.00,,,0.00,LWC V2.00 B2112,2013-03-03 12:15:00,
2013-03-03 04:20:00,36.6,23.2,29.98,North,359,8.0,8.0,58,0.00,,,0.00,LWC V2.00 B2112,2013-03-03 12:20:00,
2013-03-03 04:25:00,36.6,23.2,29.98,WNW,287,0.0,0.0,58,0.00,,,0.00,LWC V2.00 B2112,2013-03-03 12:25:00,
2013-03-03 04:30:00,37.8,24.4,29.98,NNW,339,2.0,6.0,58,0.00,,,0.00,LWC V2.00 B2112,2013-03-03 12:30:00,
2013-03-03 04:35:00,37.8,24.4,29.98,NNW,329,2.0,2.0,58,0.00,,,0.00,LWC V2.00 B2112,2013-03-03 12:35:00,
2013-03-03 04:40:00,37.8,24.4,29.98,NE,47,0.0,0.0,58,0.00,,,0.00,LWC V2.00 B2112,2013-03-03 12:40:00,
2013-03-03 04:45:00,38.5,25.0,29.99,WNW,296,1.0,4.0,58,0.00,,,0.00,LWC V2.00 B2112,2013-03-03 12:45:00,
2013-03-03 04:50:00,38.5,25.0,29.99,WNW,296,0.0,0.0,58,0.00,,,0.00,LWC V2.00 B2112,2013-03-03 12:50:00,
2013-03-03 04:55:00,37.6,24.2,29.99,NNW,347,6.0,7.0,58,0.00,,,0.00,LWC V2.00 B2112,2013-03-03 12:55:00,
2013-03-03 05:00:00,38.0,24.6,30.00,WNW,291,1.0,1.0,58,0.00,,,0.00,LWC V2.00 B2112,2013-03-03 13:00:00,
2013-03-03 05:05:00,38.0,24.6,30.00,WNW,291,0.0,0.0,58,0.00,,,0.00,LWC V2.00 B2112,2013-03-03 13:05:00,
2013-03-03 05:10:00,37.5,24.1,30.00,WNW,292,0.0,1.0,58,0.00,,,0.00,LWC V2.00 B2112,2013-03-03 13:10:00,
2013-03-03 05:15:00,37.6,23.8,30.02,NW,315,1.0,6.0,57,0.00,,,0.00,LWC V2.00 B2112,2013-03-03 13:15:00,
2013-03-03 05:20:00,37.9,24.0,30.02,NW,308,2.0,2.0,57,0.00,,,0.00,LWC V2.00 B2112,2013-03-03 13:20:00,
2013-03-03 05:25:00,37.9,24.0,30.02,WNW,295,0.0,4.0,57,0.00,,,0.00,LWC V2.00 B2112,2013-03-03 13:25:00,
2013-03-03 05:30:00,37.9,24.0,30.02,West,281,2.0,2.0,57,0.00,,,0.00,LWC V2.00 B2112,2013-03-03 13:30:00,
2013-03-03 05:35:00,36.6,22.8,30.02,West,281,0.0,2.0,57,0.00,,,0.00,LWC V2.00 B2112,2013-03-03 13:35:00,
2013-03-03 05:40:00,36.5,22.7,30.02,NW,308,0.0,1.0,57,0.00,,,0.00,LWC V2.00 B2112,2013-03-03 13:40:00,
2013-03-03 05:45:00,36.5,22.7,30.02,SW,220,0.0,2.0,57,0.00,,,0.00,LWC V2.00 B2112,2013-03-03 13:45:00,
2013-03-03 05:50:00,36.3,22.5,30.02,SW,220,0.0,0.0,57,0.00,,,0.00,LWC V2.00 B2112,2013-03-03 13:50:00,
2013-03-03 05:55:00,35.6,21.9,30.02,SSE,158,1.0,2.0,57,0.00,,,0.00,LWC V2.00 B2112,2013-03-03 13:55:00,
2013-03-03 06:00:00,35.0,21.3,30.02,WNW,296,1.0,1.0,57,0.00,,,0.00,LWC V2.00 B2112,2013-03-03 14:00:00,
2013-03-03 06:05:00,35.0,24.1,30.02,NNW,333,4.0,4.0,64,0.00,,,0.00,LWC V2.00 B2112,2013-03-03 14:05:00,
2013-03-03 06:10:00,35.0,24.1,30.02,WNW,296,4.0,4.0,64,0.00,,,0.00,LWC V2.00 B2112,2013-03-03 14:10:00,
2013-03-03 06:15:00,36.8,25.8,30.01,West,275,2.0,2.0,64,0.00,,,0.00,LWC V2.00 B2112,2013-03-03 14:15:00,
2013-03-03 06:20:00,36.8,25.8,30.01,North,1,7.0,7.0,64,0.00,,,0.00,LWC V2.00 B2112,2013-03-03 14:20:00,
2013-03-03 06:25:00,37.3,26.3,30.01,North,359,0.0,0.0,64,0.00,,,0.00,LWC V2.00 B2112,2013-03-03 14:25:00,
2013-03-03 06:30:00,36.9,24.3,30.01,North,359,0.0,0.0,60,0.00,,,0.00,LWC V2.00 B2112,2013-03-03 14:30:00,
2013-03-03 06:35:00,36.0,23.9,30.01,North,359,0.0,0.0,61,0.00,,,0.00,LWC V2.00 B2112,2013-03-03 14:35:00,
2013-03-03 06:40:00,36.0,23.9,30.01,North,359,0.0,0.0,61,0.00,,,0.00,LWC V2.00 B2112,2013-03-03 14:40:00,
2013-03-03 06:45:00,36.0,23.9,30.01,North,359,0.0,0.0,61,0.00,,,0.00,LWC V2.00 B2112,2013-03-03 14:45:00,
2013-03-03 06:50:00,34.9,22.8,30.01,North,359,0.0,0.0,61,0.00,,,0.00,LWC V2.00 B2112,2013-03-03 14:50:00,
2013-03-03 06:55:00,33.7,21.7,30.01,North,359,0.0,2.0,61,0.00,,,0.00,LWC V2.00 B2112,2013-03-03 14:55:00,
2013-03-03 07:00:00,33.7,21.7,30.01,NW,304,7.0,7.0,61,0.00,,,0.00,LWC V2.00 B2112,2013-03-03 15:00:00,
2013-03-03 07:05:00,33.7,21.7,30.01,WSW,248,1.0,4.0,61,0.00,,,0.00,LWC V2.00 B2112,2013-03-03 15:05:00,
2013-03-03 07:10:00,33.7,21.7,30.01,WSW,248,0.0,0.0,61,0.00,,,0.00,LWC V2.00 B2112,2013-03-03 15:10:00,
2013-03-03 07:15:00,33.7,21.7,30.02,WSW,248,2.0,4.0,61,0.00,,,0.00,LWC V2.00 B2112,2013-03-03 15:15:00,
2013-03-03 07:20:00,33.7,21.7,30.02,WSW,248,2.0,2.0,61,0.00,,,0.00,LWC V2.00 B2112,2013-03-03 15:20:00,
2013-03-03 07:25:00,33.7,21.7,30.02,WSW,248,0.0,0.0,61,0.00,,,0.00,LWC V2.00 B2112,2013-03-03 15:25:00,
2013-03-03 07:30:00,33.7,21.7,30.01,WSW,248,0.0,0.0,61,0.00,,,0.00,LWC V2.00 B2112,2013-03-03 15:30:00,
2013-03-03 07:35:00,34.6,22.2,30.01,NNE,16,1.0,7.0,60,0.00,,,0.00,LWC V2.00 B2112,2013-03-03 15:35:00,
2013-03-03 07:40:00,34.4,24.2,30.01,WSW,258,0.0,0.0,66,0.00,,,0.00,LWC V2.00 B2112,2013-03-03 15:40:00,
2013-03-03 07:45:00,34.3,24.1,30.01,WSW,258,0.0,0.0,66,0.00,,,0.00,LWC V2.00 B2112,2013-03-03 15:45:00,
2013-03-03 07:50:00,34.4,24.6,30.01,SSE,155,1.0,2.0,67,0.00,,,0.00,LWC V2.00 B2112,2013-03-03 15:50:00,
2013-03-03 07:55:00,34.4,24.2,30.01,SSE,157,0.0,2.0,66,0.00,,,0.00,LWC V2.00 B2112,2013-03-03 15:55:00,
2013-03-03 08:00:00,34.7,23.8,30.02,SSE,155,0.0,0.0,64,0.00,,,0.00,LWC V2.00 B2112,2013-03-03 16:00:00,
2013-03-03 08:05:00,36.6,24.0,30.02,SSW,213,2.0,9.0,60,0.00,,,0.00,LWC V2.00 B2112,2013-03-03 16:05:00,
2013-03-03 08:10:00,38.3,19.9,30.02,NNW,330,4.0,6.0,47,0.00,,,0.00,LWC V2.00 B2112,2013-03-03 16:10:00,
2013-03-03 08:15:00,39.9,19.2,30.02,ENE,61,7.0,8.0,43,0.00,,,0.00,LWC V2.00 B2112,2013-03-03 16:15:00,
2013-03-03 08:20:00,41.1,18.1,30.02,North,3,2.0,9.0,39,0.00,,,0.00,LWC V2.00 B2112,2013-03-03 16:20:00,
2013-03-03 08:25:00,41.5,20.7,30.02,NW,313,0.0,0.0,43,0.00,,,0.00,LWC V2.00 B2112,2013-03-03 16:25:00,
2013-03-03 08:30:00,42.1,17.7,30.02,ENE,59,0.0,9.0,37,0.00,,,0.00,LWC V2.00 B2112,2013-03-03 16:30:00,
2013-03-03 08:35:00,42.8,20.7,30.02,ENE,62,0.0,2.0,41,0.00,,,0.00,LWC V2.00 B2112,2013-03-03 16:35:00,
2013-03-03 08:40:00,42.9,22.0,30.02,South,179,0.0,2.0,43,0.00,,,0.00,LWC V2.00 B2112,2013-03-03 16:40:00,
2013-03-03 08:45:00,43.1,20.4,30.02,SSE,150,0.0,1.0,40,0.00,,,0.00,LWC V2.00 B2112,2013-03-03 16:45:00,
2013-03-03 08:50:00,43.5,19.0,30.02,North,11,6.0,13.0,37,0.00,,,0.00,LWC V2.00 B2112,2013-03-03 16:50:00,
2013-03-03 08:55:00,43.5,17.0,30.02,NNW,337,11.0,11.0,34,0.00,,,0.00,LWC V2.00 B2112,2013-03-03 16:55:00,
2013-03-03 09:00:00,43.1,19.8,30.03,NW,308,8.0,18.0,39,0.00,,,0.00,LWC V2.00 B2112,2013-03-03 17:00:00,
2013-03-03 09:05:00,43.2,17.4,30.03,NNE,14,1.0,10.0,35,0.00,,,0.00,LWC V2.00 B2112,2013-03-03 17:05:00,
2013-03-03 09:10:00,43.3,20.0,30.03,West,265,7.0,7.0,39,0.00,,,0.00,LWC V2.00 B2112,2013-03-03 17:10:00,
2013-03-03 09:15:00,43.5,19.0,30.02,NW,319,1.0,8.0,37,0.00,,,0.00,LWC V2.00 B2112,2013-03-03 17:15:00,
2013-03-03 09:20:00,43.6,17.8,30.02,North,6,0.0,10.0,35,0.00,,,0.00,LWC V2.00 B2112,2013-03-03 17:20:00,
2013-03-03 09:25:00,43.8,17.3,30.02,NNW,340,2.0,10.0,34,0.00,,,0.00,LWC V2.00 B2112,2013-03-03 17:25:00,
2013-03-03 09:30:00,44.3,19.0,30.02,ENE,71,2.0,4.0,36,0.00,,,0.00,LWC V2.00 B2112,2013-03-03 17:30:00,
2013-03-03 09:35:00,44.6,16.6,30.02,SSE,165,6.0,9.0,32,0.00,,,0.00,LWC V2.00 B2112,2013-03-03 17:35:00,
2013-03-03 09:40:00,44.9,17.6,30.02,SSE,148,1.0,2.0,33,0.00,,,0.00,LWC V2.00 B2112,2013-03-03 17:40:00,
2013-03-03 09:45:00,44.5,19.2,30.02,NW,318,9.0,10.0,36,0.00,,,0.00,LWC V2.00 B2112,2013-03-03 17:45:00,
2013-03-03 09:50:00,43.8,17.3,30.02,WNW,294,6.0,11.0,34,0.00,,,0.00,LWC V2.00 B2112,2013-03-03 17:50:00,
2013-03-03 09:55:00,44.3,17.7,30.02,North,357,8.0,10.0,34,0.00,,,0.00,LWC V2.00 B2112,2013-03-03 17:55:00,
2013-03-03 10:00:00,44.6,17.3,30.02,NW,311,6.0,6.0,33,0.00,,,0.00,LWC V2.00 B2112,2013-03-03 18:00:00,
2013-03-03 10:05:00,44.8,16.0,30.02,NNE,14,15.0,20.0,31,0.00,,,0.00,LWC V2.00 B2112,2013-03-03 18:05:00,
2013-03-03 10:10:00,44.9,16.1,30.02,North,3,6.0,11.0,31,0.00,,,0.00,LWC V2.00 B2112,2013-03-03 18:10:00,
2013-03-03 10:15:00,44.9,16.1,30.03,NNE,24,7.0,13.0,31,0.00,,,0.00,LWC V2.00 B2112,2013-03-03 18:15:00,
2013-03-03 10:20:00,45.1,15.5,30.03,NW,305,7.0,14.0,30,0.00,,,0.00,LWC V2.00 B2112,2013-03-03 18:20:00,
2013-03-03 10:25:00,45.4,15.8,30.03,WNW,296,2.0,7.0,30,0.00,,,0.00,LWC V2.00 B2112,2013-03-03 18:25:00,
2013-03-03 10:30:00,45.5,15.9,30.03,NW,320,2.0,11.0,30,0.00,,,0.00,LWC V2.00 B2112,2013-03-03 18:30:00,
2013-03-03 10:35:00,45.4,15.0,30.03,West,281,8.0,10.0,29,0.00,,,0.00,LWC V2.00 B2112,2013-03-03 18:35:00,
2013-03-03 10:40:00,45.2,16.4,30.03,WNW,291,9.0,17.0,31,0.00,,,0.00,LWC V2.00 B2112,2013-03-03 18:40:00,
2013-03-03 10:45:00,45.4,15.8,30.03,North,354,15.0,17.0,30,0.00,,,0.00,LWC V2.00 B2112,2013-03-03 18:45:00,
2013-03-03 10:50:00,45.4,15.0,30.03,NW,320,14.0,16.0,29,0.00,,,0.00,LWC V2.00 B2112,2013-03-03 18:50:00,
2013-03-03 10:55:00,45.5,17.4,30.03,NW,322,8.0,20.0,32,0.00,,,0.00,LWC V2.00 B2112,2013-03-03 18:55:00,
2013-03-03 11:00:00,44.9,16.1,30.04,NW,309,11.0,25.0,31,0.00,,,0.00,LWC V2.00 B2112,2013-03-03 19:00:00,
2013-03-03 11:05:00,45.1,15.5,30.04,WNW,285,16.0,20.0,30,0.00,,,0.00,LWC V2.00 B2112,2013-03-03 19:05:00,
2013-03-03 11:10:00,45.7,15.3,30.04,NNW,337,4.0,11.0,29,0.00,,,0.00,LWC V2.00 B2112,2013-03-03 19:10:00,
2013-03-03 11:15:00,46.0,15.5,30.03,NNW,330,17.0,25.0,29,0.00,,,0.00,LWC V2.00 B2112,2013-03-03 19:15:00,
2013-03-03 11:20:00,46.1,20.0,30.03,NNW,335,0.0,10.0,35,0.00,,,0.00,LWC V2.00 B2112,2013-03-03 19:20:00,
2013-03-03 11:25:00,46.2,17.3,30.03,NW,316,8.0,24.0,31,0.00,,,0.00,LWC V2.00 B2112,2013-03-03 19:25:00,
2013-03-03 11:30:00,46.2,16.5,30.04,North,352,6.0,7.0,30,0.00,,,0.00,LWC V2.00 B2112,2013-03-03 19:30:00,
2013-03-03 11:35:00,46.1,16.4,30.04,WNW,301,4.0,14.0,30,0.00,,,0.00,LWC V2.00 B2112,2013-03-03 19:35:00,
2013-03-03 11:40:00,46.5,16.0,30.04,North,6,8.0,14.0,29,0.00,,,0.00,LWC V2.00 B2112,2013-03-03 19:40:00,
2013-03-03 11:45:00,46.1,14.8,30.04,WNW,288,13.0,14.0,28,0.00,,,0.00,LWC V2.00 B2112,2013-03-03 19:45:00,
2013-03-03 11:50:00,46.2,14.9,30.04,NNW,329,7.0,14.0,28,0.00,,,0.00,LWC V2.00 B2112,2013-03-03 19:50:00,
2013-03-03 11:55:00,46.2,15.7,30.04,WNW,298,8.0,9.0,29,0.00,,,0.00,LWC V2.00 B2112,2013-03-03 19:55:00,
2013-03-03 12:00:00,46.5,15.2,30.04,NW,308,8.0,8.0,28,0.00,,,0.00,LWC V2.00 B2112,2013-03-03 20:00:00,
2013-03-03 12:05:00,46.7,14.5,30.04,NNW,333,6.0,7.0,27,0.00,,,0.00,LWC V2.00 B2112,2013-03-03 20:05:00,
2013-03-03 12:10:00,47.3,17.5,30.04,North,349,8.0,11.0,30,0.00,,,0.00,LWC V2.00 B2112,2013-03-03 20:10:00,
2013-03-03 12:15:00,47.3,15.0,30.04,NE,41,10.0,20.0,27,0.00,,,0.00,LWC V2.00 B2112,2013-03-03 20:15:00,
2013-03-03 12:20:00,47.4,15.1,30.04,NNW,346,15.0,17.0,27,0.00,,,0.00,LWC V2.00 B2112,2013-03-03 20:20:00,
2013-03-03 12:25:00,47.4,14.3,30.04,North,352,13.0,13.0,26,0.00,,,0.00,LWC V2.00 B2112,2013-03-03 20:25:00,
2013-03-03 12:30:00,47.3,14.2,30.04,NNW,337,2.0,17.0,26,0.00,,,0.00,LWC V2.00 B2112,2013-03-03 20:30:00,
2013-03-03 12:35:00,47.6,15.3,30.04,NNW,346,16.0,21.0,27,0.00,,,0.00,LWC V2.00 B2112,2013-03-03 20:35:00,
2013-03-03 12:40:00,47.1,14.9,30.04,NW,315,1.0,14.0,27,0.00,,,0.00,LWC V2.00 B2112,2013-03-03 20:40:00,
2013-03-03 12:45:00,47.6,13.5,30.04,South,189,1.0,10.0,25,0.00,,,0.00,LWC V2.00 B2112,2013-03-03 20:45:00,
2013-03-03 12:50:00,48.0,15.6,30.04,WNW,294,4.0,7.0,27,0.00,,,0.00,LWC V2.00 B2112,2013-03-03 20:50:00,
2013-03-03 12:55:00,47.9,15.5,30.04,North,359,2.0,15.0,27,0.00,,,0.00,LWC V2.00 B2112,2013-03-03 20:55:00,
2013-03-03 13:00:00,48.3,14.1,30.03,NNW,336,13.0,15.0,25,0.00,,,0.00,LWC V2.00 B2112,2013-03-03 21:00:00,
2013-03-03 13:05:00,48.5,16.1,30.03,SSW,213,0.0,1.0,27,0.00,,,0.00,LWC V2.00 B2112,2013-03-03 21:05:00,
2013-03-03 13:10:00,48.2,12.2,30.03,West,263,14.0,15.0,23,0.00,,,0.00,LWC V2.00 B2112,2013-03-03 21:10:00,
2013-03-03 13:15:00,48.0,14.8,30.04,SSW,208,1.0,8.0,26,0.00,,,0.00,LWC V2.00 B2112,2013-03-03 21:15:00,
2013-03-03 13:20:00,48.3,15.9,30.04,WSW,247,2.0,6.0,27,0.00,,,0.00,LWC V2.00 B2112,2013-03-03 21:20:00,
2013-03-03 13:25:00,48.9,13.7,30.04,ENE,73,1.0,7.0,24,0.00,,,0.00,LWC V2.00 B2112,2013-03-03 21:25:00,
2013-03-03 13:30:00,48.9,16.4,30.03,NNW,339,10.0,11.0,27,0.00,,,0.00,LWC V2.00 B2112,2013-03-03 21:30:00,
2013-03-03 13:35:00,49.2,14.9,30.03,North,6,11.0,13.0,25,0.00,,,0.00,LWC V2.00 B2112,2013-03-03 21:35:00,
2013-03-03 13:40:00,48.9,13.7,30.03,NW,306,6.0,9.0,24,0.00,,,0.00,LWC V2.00 B2112,2013-03-03 21:40:00,
2013-03-03 13:45:00,48.2,14.0,30.04,West,265,6.0,16.0,25,0.00,,,0.00,LWC V2.00 B2112,2013-03-03 21:45:00,
2013-03-03 13:50:00,48.2,13.1,30.04,NNW,339,6.0,8.0,24,0.00,,,0.00,LWC V2.00 B2112,2013-03-03 21:50:00,
2013-03-03 13:55:00,48.6,15.3,30.04,North,352,6.0,13.0,26,0.00,,,0.00,LWC V2.00 B2112,2013-03-03 21:55:00,
2013-03-03 14:00:00,49.1,16.6,30.04,North,356,6.0,14.0,27,0.00,,,0.00,LWC V2.00 B2112,2013-03-03 22:00:00,
2013-03-03 14:05:00,49.1,12.9,30.04,NW,318,4.0,10.0,23,0.00,,,0.00,LWC V2.00 B2112,2013-03-03 22:05:00,
2013-03-03 14:10:00,48.8,14.6,30.04,West,267,8.0,8.0,25,0.00,,,0.00,LWC V2.00 B2112,2013-03-03 22:10:00,
2013-03-03 14:15:00,48.3,14.1,30.04,SW,217,9.0,14.0,25,0.00,,,0.00,LWC V2.00 B2112,2013-03-03 22:15:00,
2013-03-03 14:20:00,48.8,14.6,30.04,WNW,296,6.0,9.0,25,0.00,,,0.00,LWC V2.00 B2112,2013-03-03 22:20:00,
2013-03-03 14:25:00,49.1,14.8,30.04,NNW,329,6.0,9.0,25,0.00,,,0.00,LWC V2.00 B2112,2013-03-03 22:25:00,
2013-03-03 14:30:00,48.9,14.6,30.04,West,272,7.0,10.0,25,0.00,,,0.00,LWC V2.00 B2112,2013-03-03 22:30:00,
2013-03-03 14:35:00,48.9,14.6,30.04,NW,313,4.0,6.0,25,0.00,,,0.00,LWC V2.00 B2112,2013-03-03 22:35:00,
2013-03-03 14:40:00,49.2,14.0,30.04,WSW,241,0.0,7.0,24,0.00,,,0.00,LWC V2.00 B2112,2013-03-03 22:40:00,
2013-03-03 14:45:00,49.4,15.1,30.05,NNW,343,0.0,7.0,25,0.00,,,0.00,LWC V2.00 B2112,2013-03-03 22:45:00,
2013-03-03 14:50:00,49.4,16.0,30.05,North,356,10.0,13.0,26,0.00,,,0.00,LWC V2.00 B2112,2013-03-03 22:50:00,
2013-03-03 14:55:00,48.9,14.6,30.05,NW,315,8.0,8.0,25,0.00,,,0.00,LWC V2.00 B2112,2013-03-03 22:55:00,
2013-03-03 15:00:00,48.8,13.6,30.05,NW,320,13.0,16.0,24,0.00,,,0.00,LWC V2.00 B2112,2013-03-03 23:00:00,
2013-03-03 15:05:00,48.9,14.6,30.05,WNW,291,2.0,15.0,25,0.00,,,0.00,LWC V2.00 B2112,2013-03-03 23:05:00,
2013-03-03 15:10:00,48.3,13.2,30.05,NNW,332,11.0,13.0,24,0.00,,,0.00,LWC V2.00 B2112,2013-03-03 23:10:00,
2013-03-03 15:15:00,48.2,14.0,30.05,NNW,335,17.0,17.0,25,0.00,,,0.00,LWC V2.00 B2112,2013-03-03 23:15:00,
2013-03-03 15:20:00,48.0,13.0,30.05,NW,308,13.0,20.0,24,0.00,,,0.00,LWC V2.00 B2112,2013-03-03 23:20:00,
2013-03-03 15:25:00,48.0,12.0,30.05,NNW,340,25.0,25.0,23,0.00,,,0.00,LWC V2.00 B2112,2013-03-03 23:25:00,
2013-03-03 15:30:00,47.7,13.6,30.05,NNE,14,6.0,15.0,25,0.00,,,0.00,LWC V2.00 B2112,2013-03-03 23:30:00,
2013-03-03 15:35:00,48.0,13.9,30.05,NE,35,10.0,20.0,25,0.00,,,0.00,LWC V2.00 B2112,2013-03-03 23:35:00,
2013-03-03 15:40:00,47.7,12.7,30.05,NW,308,10.0,13.0,24,0.00,,,0.00,LWC V2.00 B2112,2013-03-03 23:40:00,
2013-03-03 15:45:00,47.1,12.2,30.06,WNW,302,9.0,13.0,24,0.00,,,0.00,LWC V2.00 B2112,2013-03-03 23:45:00,
2013-03-03 15:50:00,46.8,15.4,30.06,NW,309,7.0,13.0,28,0.00,,,0.00,LWC V2.00 B2112,2013-03-03 23:50:00,
2013-03-03 15:55:00,46.5,16.0,30.06,WNW,301,6.0,9.0,29,0.00,,,0.00,LWC V2.00 B2112,2013-03-03 23:55:00,
2013-03-03 16:00:00,46.4,15.1,30.06,NNW,342,10.0,20.0,28,0.00,,,0.00,LWC V2.00 B2112,2013-03-04 00:00:00,
2013-03-03 16:05:00,46.1,17.2,30.06,NW,312,4.0,14.0,31,0.00,,,0.00,LWC V2.00 B2112,2013-03-04 00:05:00,
2013-03-03 16:10:00,46.0,17.1,30.06,NNE,16,6.0,9.0,31,0.00,,,0.00,LWC V2.00 B2112,2013-03-04 00:10:00,
2013-03-03 16:15:00,45.8,16.9,30.07,NE,45,6.0,9.0,31,0.00,,,0.00,LWC V2.00 B2112,2013-03-04 00:15:00,
2013-03-03 16:20:00,45.5,19.5,30.07,SW,230,1.0,13.0,35,0.00,,,0.00,LWC V2.00 B2112,2013-03-04 00:20:00,
2013-03-03 16:25:00,45.4,19.4,30.07,WSW,250,4.0,14.0,35,0.00,,,0.00,LWC V2.00 B2112,2013-03-04 00:25:00,
2013-03-03 16:30:00,45.2,16.4,30.08,NW,316,4.0,14.0,31,0.00,,,0.00,LWC V2.00 B2112,2013-03-04 00:30:00,
2013-03-03 16:35:00,45.2,17.8,30.08,WNW,294,0.0,2.0,33,0.00,,,0.00,LWC V2.00 B2112,2013-03-04 00:35:00,
2013-03-03 16:40:00,44.9,18.3,30.08,WNW,295,0.0,0.0,34,0.00,,,0.00,LWC V2.00 B2112,2013-03-04 00:40:00,
2013-03-03 16:45:00,44.6,18.7,30.08,WNW,284,2.0,2.0,35,0.00,,,0.00,LWC V2.00 B2112,2013-03-04 00:45:00,
2013-03-03 16:50:00,44.8,17.5,30.08,NW,304,4.0,10.0,33,0.00,,,0.00,LWC V2.00 B2112,2013-03-04 00:50:00,
2013-03-03 16:55:00,44.8,16.8,30.08,NW,311,10.0,15.0,32,0.00,,,0.00,LWC V2.00 B2112,2013-03-04 00:55:00,
2013-03-03 17:00:00,44.5,17.2,30.09,NNW,333,10.0,16.0,33,0.00,,,0.00,LWC V2.00 B2112,2013-03-04 01:00:00,
2013-03-03 17:05:00,44.5,17.9,30.09,West,271,1.0,4.0,34,0.00,,,0.00,LWC V2.00 B2112,2013-03-04 01:05:00,
2013-03-03 17:10:00,44.5,17.9,30.09,NNW,333,0.0,0.0,34,0.00,,,0.00,LWC V2.00 B2112,2013-03-04 01:10:00,
2013-03-03 17:15:00,44.5,17.9,30.10,NNW,333,0.0,0.0,34,0.00,,,0.00,LWC V2.00 B2112,2013-03-04 01:15:00,
2013-03-03 17:20:00,43.9,17.4,30.10,NW,313,4.0,7.0,34,0.00,,,0.00,LWC V2.00 B2112,2013-03-04 01:20:00,
2013-03-03 17:25:00,43.8,18.0,30.10,NW,312,2.0,2.0,35,0.00,,,0.00,LWC V2.00 B2112,2013-03-04 01:25:00,
2013-03-03 17:30:00,43.8,18.0,30.10,NW,312,4.0,4.0,35,0.00,,,0.00,LWC V2.00 B2112,2013-03-04 01:30:00,
2013-03-03 17:35:00,43.8,18.0,30.10,NW,312,0.0,0.0,35,0.00,,,0.00,LWC V2.00 B2112,2013-03-04 01:35:00,
2013-03-03 17:40:00,42.5,16.8,30.10,NNW,340,11.0,13.0,35,0.00,,,0.00,LWC V2.00 B2112,2013-03-04 01:40:00,
2013-03-03 17:45:00,42.6,16.9,30.11,NW,309,9.0,9.0,35,0.00,,,0.00,LWC V2.00 B2112,2013-03-04 01:45:00,
2013-03-03 17:50:00,42.6,19.4,30.11,North,349,17.0,17.0,39,0.00,,,0.00,LWC V2.00 B2112,2013-03-04 01:50:00,
2013-03-03 17:55:00,42.6,19.4,30.11,North,350,10.0,17.0,39,0.00,,,0.00,LWC V2.00 B2112,2013-03-04 01:55:00,
2013-03-03 18:00:00,42.8,19.6,30.12,NNW,332,13.0,13.0,39,0.00,,,0.00,LWC V2.00 B2112,2013-03-04 02:00:00,
2013-03-03 18:05:00,42.9,17.2,30.12,North,354,10.0,13.0,35,0.00,,,0.00,LWC V2.00 B2112,2013-03-04 02:05:00,
2013-03-03 18:10:00,42.8,18.4,30.12,North,354,14.0,14.0,37,0.00,,,0.00,LWC V2.00 B2112,2013-03-04 02:10:00,
2013-03-03 18:15:00,42.9,17.8,30.13,North,349,8.0,9.0,36,0.00,,,0.00,LWC V2.00 B2112,2013-03-04 02:15:00,
2013-03-03 18:20:00,42.8,17.7,30.13,WNW,291,14.0,14.0,36,0.00,,,0.00,LWC V2.00 B2112,2013-03-04 02:20:00,
2013-03-03 18:25:00,42.9,17.8,30.13,NNW,344,17.0,20.0,36,0.00,,,0.00,LWC V2.00 B2112,2013-03-04 02:25:00,
2013-03-03 18:30:00,42.8,18.4,30.13,NW,318,18.0,18.0,37,0.00,,,0.00,LWC V2.00 B2112,2013-03-04 02:30:00,
2013-03-03 18:35:00,42.9,17.8,30.13,North,350,8.0,17.0,36,0.00,,,0.00,LWC V2.00 B2112,2013-03-04 02:35:00,
2013-03-03 18:40:00,42.8,17.7,30.13,NNW,336,10.0,15.0,36,0.00,,,0.00,LWC V2.00 B2112,2013-03-04 02:40:00,
2013-03-03 18:45:00,42.8,18.4,30.14,NW,320,15.0,17.0,37,0.00,,,0.00,LWC V2.00 B2112,2013-03-04 02:45:00,
2013-03-03 18:50:00,42.6,16.2,30.14,NW,325,16.0,16.0,34,0.00,,,0.00,LWC V2.00 B2112,2013-03-04 02:50:00,
2013-03-03 18:55:00,42.6,17.5,30.14,NW,309,13.0,21.0,36,0.00,,,0.00,LWC V2.00 B2112,2013-03-04 02:55:00,
2013-03-03 19:00:00,42.6,16.9,30.14,NNW,344,9.0,10.0,35,0.00,,,0.00,LWC V2.00 B2112,2013-03-04 03:00:00,
2013-03-03 19:05:00,42.6,16.9,30.14,West,274,14.0,20.0,35,0.00,,,0.00,LWC V2.00 B2112,2013-03-04 03:05:00,
2013-03-03 19:10:00,42.6,16.9,30.14,WNW,292,20.0,21.0,35,0.00,,,0.00,LWC V2.00 B2112,2013-03-04 03:10:00,
2013-03-03 19:15:00,42.6,17.5,30.14,NW,326,9.0,13.0,36,0.00,,,0.00,LWC V2.00 B2112,2013-03-04 03:15:00,
2013-03-03 19:20:00,42.5,16.1,30.14,NNW,332,16.0,18.0,34,0.00,,,0.00,LWC V2.00 B2112,2013-03-04 03:20:00,
2013-03-03 19:25:00,42.3,16.0,30.14,NW,325,8.0,15.0,34,0.00,,,0.00,LWC V2.00 B2112,2013-03-04 03:25:00,
2013-03-03 19:30:00,42.3,17.3,30.15,NW,316,8.0,10.0,36,0.00,,,0.00,LWC V2.00 B2112,2013-03-04 03:30:00,
2013-03-03 19:36:00,42.3,17.3,30.15,North,359,10.0,14.0,36,0.00,,,0.00,LWC V2.00 B2112,2013-03-04 03:36:00,
2013-03-03 19:41:00,42.2,17.2,30.15,NNW,332,6.0,13.0,36,0.00,,,0.00,LWC V2.00 B2112,2013-03-04 03:41:00,
2013-03-03 19:46:00,41.9,16.3,30.15,NNW,335,6.0,6.0,35,0.00,,,0.00,LWC V2.00 B2112,2013-03-04 03:46:00,
2013-03-03 19:51:00,41.8,16.2,30.15,NW,316,1.0,1.0,35,0.00,,,0.00,LWC V2.00 B2112,2013-03-04 03:51:00,
2013-03-03 19:56:00,41.5,15.9,30.15,West,274,0.0,6.0,35,0.00,,,0.00,LWC V2.00 B2112,2013-03-04 03:56:00,
2013-03-03 20:01:00,40.8,19.5,30.16,West,274,0.0,0.0,42,0.00,,,0.00,LWC V2.00 B2112,2013-03-04 04:01:00,
2013-03-03 20:06:00,39.5,19.4,30.16,West,274,0.0,1.0,44,0.00,,,0.00,LWC V2.00 B2112,2013-03-04 04:06:00,
2013-03-03 20:11:00,38.5,20.5,30.16,West,274,0.0,0.0,48,0.00,,,0.00,LWC V2.00 B2112,2013-03-04 04:11:00,
2013-03-03 20:16:00,38.2,19.3,30.15,West,274,0.0,1.0,46,0.00,,,0.00,LWC V2.00 B2112,2013-03-04 04:16:00,
2013-03-03 20:21:00,38.0,20.6,30.15,West,274,0.0,0.0,49,0.00,,,0.00,LWC V2.00 B2112,2013-03-04 04:21:00,
2013-03-03 20:26:00,37.3,19.9,30.15,West,274,0.0,0.0,49,0.00,,,0.00,LWC V2.00 B2112,2013-03-04 04:26:00,
2013-03-03 20:31:00,36.5,23.1,30.16,West,274,0.0,0.0,58,0.00,,,0.00,LWC V2.00 B2112,2013-03-04 04:31:00,
2013-03-03 20:36:00,35.6,21.5,30.16,West,274,0.0,0.0,56,0.00,,,0.00,LWC V2.00 B2112,2013-03-04 04:36:00,
2013-03-03 20:41:00,35.2,23.1,30.16,West,274,0.0,0.0,61,0.00,,,0.00,LWC V2.00 B2112,2013-03-04 04:41:00,
2013-03-03 20:46:00,34.7,22.6,30.16,West,274,0.0,0.0,61,0.00,,,0.00,LWC V2.00 B2112,2013-03-04 04:46:00,
2013-03-03 20:51:00,34.3,21.9,30.16,West,274,0.0,0.0,60,0.00,,,0.00,LWC V2.00 B2112,2013-03-04 04:51:00,
2013-03-03 20:56:00,34.0,20.8,30.16,West,274,0.0,1.0,58,0.00,,,0.00,LWC V2.00 B2112,2013-03-04 04:56:00,
2013-03-03 21:00:00,34.0,22.7,30.16,West,274,0.0,4.0,63,0.00,,,0.00,LWC V2.00 B2112,2013-03-04 05:00:00,
2013-03-03 21:05:00,33.7,22.1,30.16,West,274,0.0,0.0,62,0.00,,,0.00,LWC V2.00 B2112,2013-03-04 05:05:00,
2013-03-03 21:10:00,33.4,22.2,30.16,West,274,0.0,0.0,63,0.00,,,0.00,LWC V2.00 B2112,2013-03-04 05:10:00,
2013-03-03 21:15:00,32.9,21.3,30.17,West,274,0.0,0.0,62,0.00,,,0.00,LWC V2.00 B2112,2013-03-04 05:15:00,
2013-03-03 21:20:00,32.8,21.6,30.17,West,274,0.0,0.0,63,0.00,,,0.00,LWC V2.00 B2112,2013-03-04 05:20:00,
2013-03-03 21:25:00,33.2,20.8,30.17,West,275,6.0,6.0,60,0.00,,,0.00,LWC V2.00 B2112,2013-03-04 05:25:00,
2013-03-03 21:30:00,34.4,21.2,30.17,WNW,284,6.0,8.0,58,0.00,,,0.00,LWC V2.00 B2112,2013-03-04 05:30:00,
2013-03-03 21:35:00,34.7,20.6,30.17,WNW,298,6.0,9.0,56,0.00,,,0.00,LWC V2.00 B2112,2013-03-04 05:35:00,
2013-03-03 21:40:00,34.6,21.8,30.17,WNW,295,2.0,7.0,59,0.00,,,0.00,LWC V2.00 B2112,2013-03-04 05:40:00,
2013-03-03 21:45:00,34.3,21.1,30.17,WNW,295,2.0,4.0,58,0.00,,,0.00,LWC V2.00 B2112,2013-03-04 05:45:00,
2013-03-03 21:50:00,34.0,21.2,30.17,WNW,295,2.0,6.0,59,0.00,,,0.00,LWC V2.00 B2112,2013-03-04 05:50:00,
2013-03-03 21:55:00,33.4,21.8,30.17,WNW,295,4.0,4.0,62,0.00,,,0.00,LWC V2.00 B2112,2013-03-04 05:55:00,
2013-03-03 22:00:00,33.1,21.9,30.17,WNW,295,2.0,6.0,63,0.00,,,0.00,LWC V2.00 B2112,2013-03-04 06:00:00,
2013-03-03 22:05:00,32.9,21.7,30.17,WNW,295,6.0,7.0,63,0.00,,,0.00,LWC V2.00 B2112,2013-03-04 06:05:00,
2013-03-03 22:10:00,32.9,21.7,30.17,WNW,295,4.0,6.0,63,0.00,,,0.00,LWC V2.00 B2112,2013-03-04 06:10:00,
2013-03-03 22:15:00,32.9,21.3,30.18,West,278,6.0,6.0,62,0.00,,,0.00,LWC V2.00 B2112,2013-03-04 06:15:00,
2013-03-03 22:20:00,33.1,21.9,30.18,WNW,296,6.0,7.0,63,0.00,,,0.00,LWC V2.00 B2112,2013-03-04 06:20:00,
2013-03-03 22:25:00,32.5,21.3,30.18,West,278,7.0,9.0,63,0.00,,,0.00,LWC V2.00 B2112,2013-03-04 06:25:00,
2013-03-03 22:30:00,32.7,21.5,30.18,NW,305,4.0,6.0,63,0.00,,,0.00,LWC V2.00 B2112,2013-03-04 06:30:00,
2013-03-03 22:35:00,32.7,21.5,30.18,NW,304,2.0,2.0,63,0.00,,,0.00,LWC V2.00 B2112,2013-03-04 06:35:00,
2013-03-03 22:40:00,32.2,21.0,30.18,WNW,296,4.0,6.0,63,0.00,,,0.00,LWC V2.00 B2112,2013-03-04 06:40:00,
2013-03-03 22:45:00,31.5,20.4,30.19,WNW,299,4.0,7.0,63,0.00,,,0.00,LWC V2.00 B2112,2013-03-04 06:45:00,
2013-03-03 22:50:00,31.6,20.5,30.19,WNW,284,4.0,6.0,63,0.00,,,0.00,LWC V2.00 B2112,2013-03-04 06:50:00,
2013-03-03 22:55:00,31.6,20.5,30.19,West,274,6.0,6.0,63,0.00,,,0.00,LWC V2.00 B2112,2013-03-04 06:55:00,
2013-03-03 23:00:00,31.6,20.5,30.19,West,275,4.0,4.0,63,0.00,,,0.00,LWC V2.00 B2112,2013-03-04 07:00:00,
2013-03-03 23:05:00,31.6,20.5,30.19,West,280,4.0,6.0,63,0.00,,,0.00,LWC V2.00 B2112,2013-03-04 07:05:00,
2013-03-03 23:10:00,31.6,20.5,30.19,West,280,2.0,2.0,63,0.00,,,0.00,LWC V2.00 B2112,2013-03-04 07:10:00,
2013-03-03 23:15:00,31.0,19.9,30.19,WNW,296,4.0,6.0,63,0.00,,,0.00,LWC V2.00 B2112,2013-03-04 07:15:00,
2013-03-03 23:20:00,31.0,21.0,30.19,WNW,292,7.0,7.0,66,0.00,,,0.00,LWC V2.00 B2112,2013-03-04 07:20:00,
2013-03-03 23:25:00,31.3,21.3,30.19,WNW,292,6.0,6.0,66,0.00,,,0.00,LWC V2.00 B2112,2013-03-04 07:25:00,
2013-03-03 23:30:00,31.3,21.3,30.19,West,281,7.0,7.0,66,0.00,,,0.00,LWC V2.00 B2112,2013-03-04 07:30:00,
2013-03-03 23:35:00,31.3,21.3,30.19,West,281,7.0,7.0,66,0.00,,,0.00,LWC V2.00 B2112,2013-03-04 07:35:00,
2013-03-03 23:40:00,-999.0,-99.9,30.19,North,-999,-999.0,7.0,-999,0.00,,,0.00,LWC V2.00 B2112,2013-03-04 07:40:00,
2013-03-03 23:45:00,-999.0,-99.9,30.18,North,-999,-999.0,0.0,-999,0.00,,,0.00,LWC V2.00 B2112,2013-03-04 07:45:00,
2013-03-03 23:50:00,-999.0,-99.9,30.18,North,-999,-999.0,0.0,-999,0.00,,,0.00,LWC V2.00 B2112,2013-03-04 07:50:00,
2013-03-03 23:55:00,-999.0,-99.9,30.18,WNW,292,1.0,2.0,-999,0.00,,,0.00,LWC V2.00 B2112,2013-03-04 07:55:00,